Logo AVAMET
Benvolgut visitant, si us plau, ingressa Recuperar contrasenya
AVAMET paisatges

la Pobla Llarga IES Pere d′Esplugues

Dades diàries. Acumulats / Últims 30 dies disponibles

Data Temperatura (°C) Humitat rel. (%) Pressió rel. (hPa) Vent (km/h) Precipitació
Mínima Mitjana Màxima Amplitud
tèrmica
Mínima Mitjana Màxima Mínima Mitjana Màxima Predom. Mitjana Ràfega
màxima
Total
(mm)
Índex-n
Mínima Mitjana Màxima Mínima Mitjana Màxima n
0 a 1
P0 max
mm 5'
Dades mensuals acumulades fins l'últim dia disponible
10/2020 8,2 13,7 18,4 19,2 20,3 25,3 32,2 24,0 17 61 94 993 1.017 1.027   6,2 75,6 5,6
Dades anuals acumulades fins l'últim dia disponible
2020 2,3 15,3 25,0 20,2 8,1 26,3 40,1 37,8 15 70 99 993 1.019 1.037   5,8 90,1 485,8
Últims 30 dies disponibles
27-10-2020 11,1     16,6     21,8 10,7 33 47 64 1.018 1.020 1.022 SW 8,4 37,0 0,0
26-10-2020 14,6     17,7     20,6 6,0 35 49 66 1.012 1.017 1.022 WSW 14,5 51,5 0,0
25-10-2020 14,8     20,1     25,9 11,1 34 53 73 1.012 1.018 1.023 ESE 9,0 33,8 0,0
24-10-2020 12,1     18,1     24,2 12,1 36 58 80 1.022 1.025 1.027 ESE 5,8 25,7 0,0
23-10-2020 15,3     19,3     24,1 8,8 37 67 94 1.018 1.022 1.026 WSW 6,8 38,6 0,0
22-10-2020 17,0     18,9     20,3 3,3 76 87 94 1.014 1.016 1.018 E 1,6 14,5 1,8 0,42 0,40
21-10-2020 17,1     21,2     27,2 10,1 49 75 93 1.010 1.012 1.015 E 3,9 20,9 0,0
20-10-2020 13,8     17,4     21,4 7,6 75 85 93 1.012 1.017 1.020 E 3,5 14,5 0,0
19-10-2020 13,7     18,1     23,9 10,2 60 79 90 1.020 1.022 1.024 E 4,5 27,4 0,0
18-10-2020 10,6     16,6     24,2 13,6 53 72 90 1.021 1.022 1.024 E 5,3 22,5 0,0
17-10-2020 8,3     15,7     25,3 17,0 24 55 77 1.016 1.019 1.021 E 5,3 19,3 0,0
16-10-2020 8,2     15,3     22,9 14,7 24 53 77 1.016 1.019 1.021 E 3,7 16,1 0,0
15-10-2020 9,8     16,6     23,3 13,5 25 51 82 1.014 1.016 1.018 E 5,3 41,8 0,0
14-10-2020 13,9     17,8     22,7 8,8 51 71 85 1.010 1.011 1.015 E 4,8 27,4 0,0
13-10-2020 12,6     19,9     28,4 15,8 30 48 65 1.011 1.016 1.021 E 8,4 40,2 0,0
12-10-2020 11,2     16,9     24,3 13,1 27 51 73 1.019 1.022 1.024 E 5,1 20,9 0,0
11-10-2020 13,8     19,3     24,4 10,6 35 61 93 1.020 1.022 1.024 NE 3,1 22,5 0,2
10-10-2020 18,4     21,9     26,1 7,7 65 80 92 1.021 1.023 1.024 ESE 2,7 46,7 1,8
09-10-2020 17,4     22,3     28,3 10,9 53 76 90 1.020 1.023 1.025 ESE 5,6 29,0 0,0
08-10-2020 15,8     21,5     28,5 12,7 57 73 88 1.022 1.024 1.027 E 4,0 17,7 0,0
07-10-2020 17,0     23,2     31,4 14,4 30 56 74 1.020 1.022 1.024 E 5,1 19,3 0,0
06-10-2020 12,8     21,2     31,1 18,3 31 50 68 1.019 1.022 1.023 E 5,1 27,4 0,0
05-10-2020 15,1     19,9     25,8 10,7 30 50 68 1.014 1.017 1.022 ESE 5,1 33,8 0,0
04-10-2020 12,4     18,9     25,4 13,0 35 51 68 1.008 1.011 1.013 SW 8,9 46,7 0,0
03-10-2020 12,3     17,7     22,4 10,1 32 47 67 1.003 1.007 1.012 SW 11,7 46,7 0,0
02-10-2020 13,5     21,4     27,9 14,4 39 54 92 993 1.000 1.007 SSW 12,2 75,6 1,8
01-10-2020 16,8     24,1     32,2 15,4 17 53 92 1.006 1.010 1.015 E 7,2 35,4 0,0
30-09-2020 15,1     20,7     27,3 12,2 54 77 88 1.014 1.016 1.019 S 3,6 22,5 0,0
29-09-2020 14,1     19,6     26,4 12,3 51 72 87 1.017 1.019 1.021 E 4,2 29,0 0,0
28-09-2020 12,1     19,4     28,4 16,3 15 55 82 1.015 1.017 1.020 E 5,3 19,3 0,0
Últims 13 mesos disponibles
09/2020 12,1 18,7 22,7 23,9 24,8 30,2 34,8 22,7 37 66 83 1.012 1.018 1.024 E 5,6 54,7 8,4
08/2020 15,8 22,8 25,0 28,0 27,8 34,9 39,2 23,4 46 68 79 1.005 1.015 1.019 NE 5,8 53,1 4,2
07/2020 18,4 22,4 24,9 27,2 28,9 33,4 40,1 21,7 55 72 84 1.012 1.017 1.021 WNW 5,8 70,8 29,8
06/2020 15,3 19,2 23,0 24,7 24,6 31,4 36,3 21,0 37 66 82 1.006 1.015 1.022 WNW 6,6 51,5 14,8
05/2020 12,2 16,2 19,3 21,8 18,9 28,3 33,7 21,5 47 67 88 1.007 1.018 1.028 ESE 5,7 51,5 25,0
04/2020 8,2 12,7 18,6 16,5 16,7 21,7 26,8 18,6 46 77 97 1.008 1.017 1.027 NE 4,6 48,3 54,0
03/2020 5,8 10,8 16,8 14,6 10,1 19,3 29,1 23,3 42 73 95 1.009 1.019 1.028 W 6,9 90,1 116,8
02/2020 5,8 9,5 12,6 14,9 14,1 22,2 26,8 21,0 47 71 94 1.015 1.027 1.034 SE 4,9 49,9 1,6
01/2020 2,3 6,4 13,1 10,6 8,1 16,2 20,4 18,1 60 78 99 1.017 1.027 1.034 SE 6,2 75,6 225,6
12/2019 4,4 10,2 18,3 13,8 12,9 18,5 25,6 21,2 49 73 95 1.004 1.021 1.034 SE 7,2 85,3 107,2
11/2019 4,1 11,4 21,6 15,6 15,9 19,9 27,9 23,8 47 60 80 1.001 1.013 1.020 W 8,2 64,4 9,2
10/2019 10,8 15,7 19,9 20,3 16,4 26,3 34,7 23,9 44 71 90 1.009 1.018 1.023 SSE 4,3 32,2 37,8
09/2019 15,4 19,9 22,9 24,3 21,8 29,2 36,9 21,5 0 66 95 0 917 1.026 S 5,9 77,8 101,2
Tots els anys disponibles
2019 -0,6 13,9 26,7 19,0 12,7 24,9 42,2 42,8 0 65 95 0 1.009 1.035 SSE 6,3 85,3 463,2
2016 1,6 13,7 26,1 18,8 12,5 23,9 42,6 41,0 34 66 96 996 1.019 1.039 70,0 395,4
2015 0,5 13,6 25,7 19,1 8,4 24,6 45,0 44,5 36 65 94 997 1.019 1.042 82,0 388,0
2012
Temperatura (°C)
Humitat relativa (%)
Velocitat del vent i ràfega màxima (km/h)
Direcció del vent (°)
Pressió (hPa)
Precipitació (mm)
Nota sobre les dades: s'avisa a l'usuari de la provisionalitat i no oficialitat d'aquestes dades
Logo AVAMET blanc
Web allotjada a Sollutia
Llicència de Creative CommonsLa web d'AVAMET i els seus continguts estan subjectes a una llicència de
Reconeixement - No Comercial - Compartir igual
Avís legal - Política de privacitat - Política de cookies
PRÒXIMES ESTACIONS: El Fondó dels Frares (Estació pròpia d'AVAMET nº34); NOVES ESTACIONS: Agres - Foia Ampla de Mariola (Socis), Beniarjó (Inforatge), Sueca - Mareny de Barraquetes (Inforatge), La Vilavella - Centre (Ajuntament Soci), Alfondeguilla (Soci), Santa Magdalena de Polpís (Soci), Benafigos (Ajuntament/Socis), Carlet - Ajuntament (Inforatge), Montroi (Inforatge), Bronchales (Limítrofe-Terol/Aj. Soci) - - -